Amherst, NY

7:24 AM EST on December 07, 2019 (GMT -0500)
BERWIN DRIVE | | Change Station

Elev 610 ft 42.97 °N, 78.79 °W | Updated 8 minutes ago

Mostly Cloudy
Mostly Cloudy
26.7 °F
Feels Like 27 °F
N
0
Wind Variable Wind from West
Gusts 2.0 mph

Today
High -- | Low -- °F
--% Chance of Precip.
Yesterday
High -- | Low -- °F
Precip. -- in
Pressure 30.37 in
Visibility 10.0 miles
Clouds Scattered Clouds 2200 ft
Mostly Cloudy 4100 ft
Overcast 6500 ft
Windchill 27 °F
Dew Point 22 °F
Humidity 81%
Rainfall 0.00 in
Snow Depth Not available.
7:32 AM 4:40 PM
Waxing Gibbous, 79% visible
METAR KBUF 071154Z 30005KT 10SM SCT022 BKN041 OVC065 M02/M07 A3034 RMK AO2 SLP284 4/003 60000 70015 T10221067 11011 21028 53017 $
Pressure 30.37 in
Visibility 10.0 miles
Clouds Scattered Clouds 2200 ft
Mostly Cloudy 4100 ft
Overcast 6500 ft
Windchill 27 °F
Dew Point 22 °F
Humidity 81%
Rainfall 0.00 in
Snow Depth Not available.
7:32 AM 4:40 PM
Waxing Gibbous, 79% visible
METAR KBUF 071154Z 30005KT 10SM SCT022 BKN041 OVC065 M02/M07 A3034 RMK AO2 SLP284 4/003 60000 70015 T10221067 11011 21028 53017 $

Get Severe Weather Alerts

Thanks for signing up!

Be on the lookout for a verification email in your inbox.

You'll start receiving the daily forecast at 6 AM.

×

10-Day Weather Forecast

Almanac

Astronomy

Dec. 07, 2019 Rise Set
Actual Time
Civil Twilight
Nautical Twilight
Astronomical Twilight
Moon
Length of Visible Light
Length of Day
Tomorrow will be .
, % of the Moon is Illuminated

Today's Extremes

State Highs State Lows

Community

WunderPhotos

Category 6

Welcome to Category 6. This is the collective home for Weather Underground's featured writeups by Dr. Jeff Masters (right), Bob Henson (left), Chris Burt, and other regular contributors.

Nearby

Air Quality

  Air Quality AQ Index Pollutant
Not available.

Snow Depth

Station Depth Elevation

Earthquake Activity

City Distance Mag. Time & Date
Minimum magnitude displayed is 2.5.

Coastal Water Temperatures

Place Temperature

Stations

Nearby Weather Stations

Station Location Temp. Windchill Dew Point Humidity Wind Precip. Elev Updated Type
                   

Watches & Warnings

There are currently no watches in effect.